메인 페이지
METAR-TAF:

METAR-TAF

공항 :

푸에르토프린세사, 필리핀

위도: 09-44-32N, 경도: 118-45-31E, 고도: 22m

현재 날씨관측

예보는 46분 전, 07:00시(UTC)에 발표되었습니다.
10kt
온도 28°C
습도 84%
기압 1007 hPa
시정 10km 이상
고도 1700ft 상공 구름 조금, 적란운.
고도 1900ft 상공 구름 보통
고도 8000ft 상공 흐림
약한소나기

METAR: RPVP 210700Z 18010KT 9999 -SHRA FEW017CB SCT019 OVC080 28/25 Q1007 RMK A2974 CB SE-S

시각: 15:46 (07:46 UTC)

예보

예보는 2 시간 46분 전, 05:00시(UTC)에 발표되었습니다.
예보 대상 시간: 21일 06시부터 22일 06시까지 (UTC)
7kt
시정 10km 이상
고도 1900ft 상공 구름 조금
고도 8000ft 상공 구름 많음
일시적
21일 06시부터 21일 12시까지 (UTC)
고도 1700ft 상공 구름 조금, 적란운.
고도 1900ft 상공 구름 보통
고도 8000ft 상공 흐림
약한소나기
일시적
21일 12시부터 21일 18시까지 (UTC)
고도 1700ft 상공 구름 조금, 적란운.
고도 1900ft 상공 구름 보통
고도 8000ft 상공 구름 많음
약한소나기
일시적
21일 18시부터 21일 24시까지 (UTC)
6kt

TAF: RPVP 210500Z 2106/2206 18007KT 9999 FEW019 BKN080 TEMPO 2106/2112 -SHRA FEW017CB SCT019 OVC080 TEMPO 2112/2118 -SHRA FEW017CB SCT019 BKN080 TEMPO 2118/2124 27006KT

4,000개 이상의 공항 관측 자료 및 예보 (METAR 및 TAF 보고).

지도상에서 검색 가능한 기상관측소가 노란 점과 빨간 점으로 표시되어 있습니다.

기상관측소 명을 보려면 표시 위로 마우스를 이동하세요.

날씨 관측과 예보를 보려면 클릭하세요.

지도 변경 : 확대하려면 엑스 표시가 있는 녹색 버튼, 축소하려면 빼기 표시가 있는 녹색 버튼, 다음 페이지의 지도를 보려면 녹색 화살표를 클릭하세요.


METAR-TAF: